Time;durP1;ratioP1;P1;durP2;ratioP2;P2;SDS_P1;SDS_P2;PMS_P1;PMS_P2;Temp;Humidity;BMP_temperature;BMP_pressure;BME280_temperature;BME280_humidity;BME280_pressure;Samples;Min_cycle;Max_cycle;Signal;HPM_P1;HPM_P2
2023/07/14 00:01:24;;;;;;;2.78;2.58;;;;;;;;;;5007771;28;20048;-72
2023/07/14 00:03:50;;;;;;;4.93;3.00;;;;;;;;;;5007227;28;20165;-72
2023/07/14 00:06:17;;;;;;;5.35;2.75;;;;;;;;;;5007112;28;20502;-72
2023/07/14 00:08:43;;;;;;;4.63;2.50;;;;;;;;;;5022362;28;20041;-72
2023/07/14 00:11:15;;;;;;;7.45;2.80;;;;;;;;;;5016866;28;20060;-73
2023/07/14 00:13:41;;;;;;;5.10;2.65;;;;;;;;;;5014225;28;20046;-73
2023/07/14 00:16:19;;;;;;;2.92;2.67;;;;;;;;;;5010534;28;20056;-72
2023/07/14 00:18:45;;;;;;;6.38;2.45;;;;;;;;;;5021433;28;20077;-72
2023/07/14 00:21:28;;;;;;;6.38;2.67;;;;;;;;;;5018919;28;20089;-73
2023/07/14 00:24:00;;;;;;;3.50;2.60;;;;;;;;;;5012630;28;20057;-72
2023/07/14 00:26:26;;;;;;;6.20;3.08;;;;;;;;;;5020986;28;20084;-73
2023/07/14 00:28:52;;;;;;;3.15;2.80;;;;;;;;;;5013149;28;20050;-72
2023/07/14 00:31:20;;;;;;;3.90;2.72;;;;;;;;;;4995279;28;20057;-74
2023/07/14 00:33:51;;;;;;;3.15;2.75;;;;;;;;;;5003486;28;20046;-72
2023/07/14 00:36:17;;;;;;;6.28;2.65;;;;;;;;;;4999590;28;20045;-73
2023/07/14 00:38:43;;;;;;;2.90;2.50;;;;;;;;;;5019262;28;20049;-72
2023/07/14 00:41:22;;;;;;;3.78;2.70;;;;;;;;;;5019988;28;20049;-73
2023/07/14 00:43:49;;;;;;;5.50;2.97;;;;;;;;;;5003910;28;21234;-74
2023/07/14 00:46:27;;;;;;;4.15;2.80;;;;;;;;;;5001875;28;20061;-72
2023/07/14 00:48:56;;;;;;;4.15;2.58;;;;;;;;;;5016590;28;20050;-73
2023/07/14 00:51:24;;;;;;;2.83;2.45;;;;;;;;;;5008298;28;20050;-73
2023/07/14 00:53:51;;;;;;;2.60;2.40;;;;;;;;;;5003545;28;20144;-73
2023/07/14 00:56:47;;;;;;;2.97;2.50;;;;;;;;;;5000892;28;20045;-73
2023/07/14 00:59:15;;;;;;;2.83;2.30;;;;;;;;;;4999867;28;20451;-73
2023/07/14 01:02:11;;;;;;;2.45;2.25;;;;;;;;;;4996378;28;20041;-73
2023/07/14 01:04:43;;;;;;;3.33;2.30;;;;;;;;;;5001967;28;20137;-73
2023/07/14 01:07:10;;;;;;;5.15;3.00;;;;;;;;;;5000440;28;20038;-72
2023/07/14 01:09:36;;;;;;;3.33;2.58;;;;;;;;;;5002615;28;20050;-72
2023/07/14 01:12:04;;;;;;;9.18;2.88;;;;;;;;;;5007800;28;20089;-73
2023/07/14 01:14:41;;;;;;;2.50;2.30;;;;;;;;;;5010229;28;20105;-73
2023/07/14 01:17:07;;;;;;;3.30;2.60;;;;;;;;;;5006778;28;20053;-73
2023/07/14 01:19:41;;;;;;;3.28;2.60;;;;;;;;;;5006872;28;20108;-73
2023/07/14 01:22:26;;;;;;;2.78;2.50;;;;;;;;;;5021655;28;20675;-73
2023/07/14 01:25:10;;;;;;;4.18;2.42;;;;;;;;;;5002787;28;20057;-72
2023/07/14 01:27:35;;;;;;;4.50;2.67;;;;;;;;;;4998382;28;20046;-73
2023/07/14 01:30:01;;;;;;;4.88;2.35;;;;;;;;;;5007470;28;20120;-73
2023/07/14 01:32:35;;;;;;;2.28;2.08;;;;;;;;;;5000034;28;20045;-72
2023/07/14 01:35:01;;;;;;;6.55;2.65;;;;;;;;;;5007568;28;20046;-72
2023/07/14 01:37:27;;;;;;;3.17;2.42;;;;;;;;;;5001143;28;20060;-72
2023/07/14 01:39:53;;;;;;;2.28;1.92;;;;;;;;;;5014856;28;20037;-73
2023/07/14 01:42:20;;;;;;;2.55;1.65;;;;;;;;;;5007613;28;20050;-72
2023/07/14 01:44:48;;;;;;;4.90;2.28;;;;;;;;;;5003580;28;20103;-72
2023/07/14 01:47:14;;;;;;;4.35;2.20;;;;;;;;;;5000059;28;20088;-72
2023/07/14 01:49:45;;;;;;;2.00;1.90;;;;;;;;;;5005161;28;20041;-73
2023/07/14 01:52:15;;;;;;;2.22;2.03;;;;;;;;;;5030697;28;20088;-72
2023/07/14 01:54:51;;;;;;;2.15;1.95;;;;;;;;;;5000176;28;20535;-73
2023/07/14 01:57:21;;;;;;;3.28;1.80;;;;;;;;;;5000123;28;20046;-72
2023/07/14 02:00:03;;;;;;;1.98;1.80;;;;;;;;;;4999335;28;20061;-72
2023/07/14 02:02:41;;;;;;;3.85;1.83;;;;;;;;;;5016802;28;20053;-73
2023/07/14 02:05:13;;;;;;;1.95;1.73;;;;;;;;;;5011519;28;20106;-72
2023/07/14 02:07:38;;;;;;;;;;;;;;;;;;5016862;28;20833;-73
2023/07/14 02:10:04;;;;;;;2.88;2.40;;;;;;;;;;5025070;28;19921;-72
2023/07/14 02:12:31;;;;;;;3.63;2.35;;;;;;;;;;5013335;28;20049;-72
2023/07/14 02:15:03;;;;;;;4.00;2.40;;;;;;;;;;5012046;28;20064;-72
2023/07/14 02:17:32;;;;;;;2.35;2.10;;;;;;;;;;5015492;28;20054;-72
2023/07/14 02:20:03;;;;;;;2.30;2.05;;;;;;;;;;5015788;28;20155;-72
2023/07/14 02:22:30;;;;;;;2.40;1.83;;;;;;;;;;5010032;28;20057;-72
2023/07/14 02:24:57;;;;;;;2.20;1.92;;;;;;;;;;5018701;28;20043;-72
2023/07/14 02:27:23;;;;;;;3.55;2.00;;;;;;;;;;5020153;28;20552;-72
2023/07/14 02:29:49;;;;;;;2.00;1.80;;;;;;;;;;5018007;28;20057;-72
2023/07/14 02:32:29;;;;;;;2.20;1.80;;;;;;;;;;4984276;28;20065;-73
2023/07/14 02:35:20;;;;;;;1.80;1.67;;;;;;;;;;5004463;28;20048;-74
2023/07/14 02:38:13;;;;;;;2.78;2.10;;;;;;;;;;5016291;28;20068;-72
2023/07/14 02:41:10;;;;;;;5.53;2.20;;;;;;;;;;5016622;28;20138;-74
2023/07/14 02:43:36;;;;;;;2.35;2.03;;;;;;;;;;4990084;28;20049;-73
2023/07/14 02:46:26;;;;;;;2.35;2.00;;;;;;;;;;5000526;28;20058;-73
2023/07/14 02:48:52;;;;;;;2.15;1.98;;;;;;;;;;5000037;28;20049;-74
2023/07/14 02:51:18;;;;;;;2.17;2.08;;;;;;;;;;5000520;28;20104;-74
2023/07/14 02:53:43;;;;;;;2.45;1.90;;;;;;;;;;4999922;28;20462;-73
2023/07/14 02:56:09;;;;;;;2.78;2.15;;;;;;;;;;5003832;28;20983;-74
2023/07/14 02:58:36;;;;;;;3.63;2.50;;;;;;;;;;4999289;28;20148;-73
2023/07/14 03:01:04;;;;;;;4.43;2.13;;;;;;;;;;5005165;28;20487;-73
2023/07/14 03:03:30;;;;;;;2.53;1.80;;;;;;;;;;5015107;28;20054;-73
2023/07/14 03:05:56;;;;;;;2.75;2.03;;;;;;;;;;4999488;28;20049;-73
2023/07/14 03:08:22;;;;;;;2.60;2.00;;;;;;;;;;5006063;28;20099;-73
2023/07/14 03:10:56;;;;;;;2.50;1.98;;;;;;;;;;5006494;28;20192;-73
2023/07/14 03:13:22;;;;;;;6.47;2.60;;;;;;;;;;5000729;28;20046;-73
2023/07/14 03:15:47;;;;;;;3.17;2.28;;;;;;;;;;5002680;28;20049;-73
2023/07/14 03:18:14;;;;;;;3.60;2.20;;;;;;;;;;5001308;28;20522;-74
2023/07/14 03:20:41;;;;;;;2.85;2.50;;;;;;;;;;4998419;28;20049;-74
2023/07/14 03:23:07;;;;;;;4.28;2.72;;;;;;;;;;5000065;28;20042;-73
2023/07/14 03:25:33;;;;;;;5.50;2.33;;;;;;;;;;4998950;28;20855;-73
2023/07/14 03:28:01;;;;;;;4.07;2.67;;;;;;;;;;4999137;28;20137;-72
2023/07/14 03:30:27;;;;;;;8.00;3.03;;;;;;;;;;5007131;28;20046;-72
2023/07/14 03:32:52;;;;;;;2.53;2.33;;;;;;;;;;4998449;28;20064;-72
2023/07/14 03:35:19;;;;;;;3.58;2.70;;;;;;;;;;5009462;28;20053;-72
2023/07/14 03:37:47;;;;;;;3.60;2.60;;;;;;;;;;5013278;28;20052;-72
2023/07/14 03:40:13;;;;;;;4.32;2.75;;;;;;;;;;5003231;28;20041;-73
2023/07/14 03:42:40;;;;;;;4.32;2.97;;;;;;;;;;5018251;28;20087;-73
2023/07/14 03:45:07;;;;;;;2.88;2.65;;;;;;;;;;5002640;28;20104;-73
2023/07/14 03:47:33;;;;;;;3.95;2.55;;;;;;;;;;5006117;28;20053;-73
2023/07/14 03:49:59;;;;;;;5.65;2.72;;;;;;;;;;4997697;28;20189;-73
2023/07/14 03:52:24;;;;;;;4.70;2.83;;;;;;;;;;4998450;28;20045;-73
2023/07/14 03:54:50;;;;;;;3.75;3.00;;;;;;;;;;5001871;28;20056;-75
2023/07/14 03:57:16;;;;;;;4.40;3.15;;;;;;;;;;5006671;28;20057;-73
2023/07/14 03:59:41;;;;;;;3.42;2.70;;;;;;;;;;5005926;28;20049;-73
2023/07/14 04:02:06;;;;;;;3.30;3.00;;;;;;;;;;5004092;28;20042;-73
2023/07/14 04:04:32;;;;;;;3.50;3.10;;;;;;;;;;5010234;28;20582;-72
2023/07/14 04:07:00;;;;;;;3.20;2.90;;;;;;;;;;5004716;28;20048;-72
2023/07/14 04:09:26;;;;;;;6.05;3.33;;;;;;;;;;4999803;28;20037;-72
2023/07/14 04:11:51;;;;;;;5.32;3.28;;;;;;;;;;5006177;28;20033;-72
2023/07/14 04:14:17;;;;;;;5.60;3.15;;;;;;;;;;5009304;28;20114;-72
2023/07/14 04:16:42;;;;;;;5.85;3.10;;;;;;;;;;5010647;28;20060;-75
2023/07/14 04:19:08;;;;;;;9.98;2.85;;;;;;;;;;5010890;28;20542;-73
2023/07/14 04:21:34;;;;;;;2.72;2.53;;;;;;;;;;5024498;28;20052;-74
2023/07/14 04:24:00;;;;;;;4.05;3.03;;;;;;;;;;5003742;28;20041;-73
2023/07/14 04:26:27;;;;;;;6.72;3.22;;;;;;;;;;5003179;28;20099;-73
2023/07/14 04:28:53;;;;;;;3.47;2.90;;;;;;;;;;5003773;28;20135;-73
2023/07/14 04:31:18;;;;;;;4.10;2.40;;;;;;;;;;5003344;28;20141;-73
2023/07/14 04:33:49;;;;;;;4.63;3.10;;;;;;;;;;5002444;28;20578;-73
2023/07/14 04:36:15;;;;;;;2.72;2.50;;;;;;;;;;5003161;28;20086;-73
2023/07/14 04:38:42;;;;;;;4.40;2.60;;;;;;;;;;5011542;28;20050;-73
2023/07/14 04:41:12;;;;;;;4.22;2.70;;;;;;;;;;5014667;28;20041;-72
2023/07/14 04:43:38;;;;;;;2.83;2.45;;;;;;;;;;5010488;28;20541;-73
2023/07/14 04:46:03;;;;;;;2.92;2.50;;;;;;;;;;5007056;28;20049;-73
2023/07/14 04:48:29;;;;;;;4.00;2.55;;;;;;;;;;5007873;28;20659;-74
2023/07/14 04:50:54;;;;;;;4.28;2.50;;;;;;;;;;5007923;28;20096;-74
2023/07/14 04:53:20;;;;;;;6.40;2.60;;;;;;;;;;5008671;28;20048;-73
2023/07/14 04:55:47;;;;;;;7.80;2.85;;;;;;;;;;5008289;28;20048;-73
2023/07/14 04:58:15;;;;;;;7.35;2.50;;;;;;;;;;5003644;28;20050;-74
2023/07/14 05:00:42;;;;;;;4.20;2.15;;;;;;;;;;5022941;28;20053;-73
2023/07/14 05:03:08;;;;;;;5.32;2.78;;;;;;;;;;5006444;28;20042;-74
2023/07/14 05:05:33;;;;;;;5.40;2.30;;;;;;;;;;5003713;28;20491;-74
2023/07/14 05:08:00;;;;;;;3.65;2.17;;;;;;;;;;5003550;28;20064;-74
2023/07/14 05:10:27;;;;;;;3.22;1.98;;;;;;;;;;5005265;28;20610;-74
2023/07/14 05:12:54;;;;;;;4.07;2.30;;;;;;;;;;5005187;28;20979;-73
2023/07/14 05:15:21;;;;;;;1.65;1.55;;;;;;;;;;5007354;28;20053;-74
2023/07/14 05:17:48;;;;;;;4.05;1.70;;;;;;;;;;5003150;28;20140;-74
2023/07/14 05:20:16;;;;;;;1.85;1.70;;;;;;;;;;5001395;28;20046;-74
2023/07/14 05:22:43;;;;;;;2.90;1.88;;;;;;;;;;5002150;28;20104;-74
2023/07/14 05:25:09;;;;;;;2.30;1.63;;;;;;;;;;4999540;28;20069;-74
2023/07/14 05:27:36;;;;;;;2.10;1.58;;;;;;;;;;5014666;28;20053;-73
2023/07/14 05:30:02;;;;;;;2.40;1.52;;;;;;;;;;5010194;28;20034;-74
2023/07/14 05:32:28;;;;;;;1.80;1.70;;;;;;;;;;5004761;28;20097;-73
2023/07/14 05:34:53;;;;;;;1.65;1.52;;;;;;;;;;5006079;28;20124;-73
2023/07/14 05:37:19;;;;;;;2.70;1.23;;;;;;;;;;5007697;28;20073;-72
2023/07/14 05:39:45;;;;;;;1.58;1.48;;;;;;;;;;4999852;28;20081;-72
2023/07/14 05:42:11;;;;;;;4.82;1.60;;;;;;;;;;5012612;28;20114;-75
2023/07/14 05:44:37;;;;;;;1.35;1.25;;;;;;;;;;5006304;28;20499;-74
2023/07/14 05:47:03;;;;;;;1.55;1.45;;;;;;;;;;5008289;28;20071;-74
2023/07/14 05:49:28;;;;;;;2.05;1.38;;;;;;;;;;5003908;28;20080;-72
2023/07/14 05:51:54;;;;;;;1.30;1.20;;;;;;;;;;5007744;28;20045;-73
2023/07/14 05:54:24;;;;;;;1.38;1.27;;;;;;;;;;5001203;28;20080;-73
2023/07/14 05:56:50;;;;;;;1.45;1.35;;;;;;;;;;5000537;28;20065;-73
2023/07/14 05:59:15;;;;;;;5.03;1.70;;;;;;;;;;4999425;28;20496;-73
2023/07/14 06:01:41;;;;;;;1.60;1.50;;;;;;;;;;5003319;28;20557;-73
2023/07/14 06:04:07;;;;;;;2.40;1.65;;;;;;;;;;5001125;28;20140;-71
2023/07/14 06:06:32;;;;;;;3.75;1.50;;;;;;;;;;5001314;28;20053;-72
2023/07/14 06:09:00;;;;;;;2.55;1.52;;;;;;;;;;5001045;28;20046;-72
2023/07/14 06:11:26;;;;;;;3.00;1.50;;;;;;;;;;4999512;28;20076;-72
2023/07/14 06:13:52;;;;;;;1.90;1.70;;;;;;;;;;5002588;28;20049;-72
2023/07/14 06:16:20;;;;;;;10.13;1.88;;;;;;;;;;4999809;28;20053;-71
2023/07/14 06:18:45;;;;;;;2.28;1.67;;;;;;;;;;5000879;28;20088;-72
2023/07/14 06:21:12;;;;;;;1.80;1.50;;;;;;;;;;5015872;28;20041;-71
2023/07/14 06:23:37;;;;;;;1.98;1.50;;;;;;;;;;5002954;28;20558;-70
2023/07/14 06:26:02;;;;;;;2.03;1.40;;;;;;;;;;4996996;28;20129;-70
2023/07/14 06:28:28;;;;;;;1.35;1.25;;;;;;;;;;5002184;28;20100;-71
2023/07/14 06:30:58;;;;;;;2.20;1.50;;;;;;;;;;4991511;28;20053;-72
2023/07/14 06:33:24;;;;;;;1.48;1.38;;;;;;;;;;5000409;28;20053;-71
2023/07/14 06:35:50;;;;;;;1.40;1.30;;;;;;;;;;4998651;28;20422;-71
2023/07/14 06:38:16;;;;;;;1.60;1.50;;;;;;;;;;5006675;28;20057;-71
2023/07/14 06:40:41;;;;;;;2.40;1.15;;;;;;;;;;5000828;28;20078;-71
2023/07/14 06:43:09;;;;;;;1.90;1.30;;;;;;;;;;4999158;28;20041;-71
2023/07/14 06:45:35;;;;;;;3.85;1.50;;;;;;;;;;5003486;28;20049;-71
2023/07/14 06:48:01;;;;;;;1.40;1.30;;;;;;;;;;4998767;28;20052;-71
2023/07/14 06:50:27;;;;;;;1.42;1.10;;;;;;;;;;5001470;28;20054;-72
2023/07/14 06:52:53;;;;;;;1.30;1.20;;;;;;;;;;5003304;28;20050;-71
2023/07/14 06:55:18;;;;;;;2.00;1.30;;;;;;;;;;5005317;28;20056;-71
2023/07/14 06:57:44;;;;;;;1.70;1.33;;;;;;;;;;5002160;28;20077;-71
2023/07/14 07:00:12;;;;;;;1.00;1.00;;;;;;;;;;5000034;28;20037;-72
2023/07/14 07:02:41;;;;;;;1.00;1.00;;;;;;;;;;5004703;28;20037;-70
2023/07/14 07:05:10;;;;;;;1.58;1.40;;;;;;;;;;5002960;28;20068;-71
2023/07/14 07:07:36;;;;;;;1.52;1.30;;;;;;;;;;5005178;28;20591;-71
2023/07/14 07:10:02;;;;;;;3.33;1.23;;;;;;;;;;4997938;28;20041;-71
2023/07/14 07:12:27;;;;;;;1.92;1.10;;;;;;;;;;5000215;28;20068;-72
2023/07/14 07:14:53;;;;;;;1.50;1.30;;;;;;;;;;4999143;28;20549;-71
2023/07/14 07:17:18;;;;;;;1.58;1.13;;;;;;;;;;5005696;28;20146;-71
2023/07/14 07:19:43;;;;;;;5.55;1.10;;;;;;;;;;5007915;28;20497;-69
2023/07/14 07:22:09;;;;;;;3.25;1.30;;;;;;;;;;5004128;28;20034;-71
2023/07/14 07:24:35;;;;;;;1.48;1.20;;;;;;;;;;5004689;28;20689;-72
2023/07/14 07:27:02;;;;;;;2.35;1.40;;;;;;;;;;5001804;28;20125;-71
2023/07/14 07:29:30;;;;;;;1.50;1.27;;;;;;;;;;5007456;28;20548;-70
2023/07/14 07:31:55;;;;;;;4.18;1.20;;;;;;;;;;5001674;28;20045;-70
2023/07/14 07:34:21;;;;;;;1.30;1.20;;;;;;;;;;4999678;28;20124;-71
2023/07/14 07:36:47;;;;;;;1.35;1.25;;;;;;;;;;5003615;28;20060;-70
2023/07/14 07:39:12;;;;;;;1.90;1.30;;;;;;;;;;4999628;28;20053;-70
2023/07/14 07:41:39;;;;;;;1.23;1.08;;;;;;;;;;5002576;28;20041;-71
2023/07/14 07:44:08;;;;;;;2.15;1.20;;;;;;;;;;4999288;28;20070;-71
2023/07/14 07:46:34;;;;;;;2.53;1.77;;;;;;;;;;5000568;28;20048;-69
2023/07/14 07:49:00;;;;;;;2.03;1.30;;;;;;;;;;5003597;28;20111;-69
2023/07/14 07:51:26;;;;;;;4.80;1.50;;;;;;;;;;5003958;28;20042;-69
2023/07/14 07:53:51;;;;;;;1.60;1.50;;;;;;;;;;5005625;28;20477;-70
2023/07/14 07:56:17;;;;;;;2.28;1.88;;;;;;;;;;5002592;28;20042;-69
2023/07/14 07:58:43;;;;;;;2.30;1.50;;;;;;;;;;5003420;28;20460;-70
2023/07/14 08:01:13;;;;;;;3.03;1.83;;;;;;;;;;5003499;28;20141;-69
2023/07/14 08:03:39;;;;;;;1.60;1.50;;;;;;;;;;5008327;28;20584;-70
2023/07/14 08:06:05;;;;;;;1.55;1.45;;;;;;;;;;5003741;28;20053;-70
2023/07/14 08:08:32;;;;;;;2.97;1.50;;;;;;;;;;5002183;28;20395;-71
2023/07/14 08:10:58;;;;;;;3.60;1.55;;;;;;;;;;5003577;28;20057;-70
2023/07/14 08:13:25;;;;;;;3.10;1.50;;;;;;;;;;5004049;28;20053;-69
2023/07/14 08:15:52;;;;;;;2.13;1.38;;;;;;;;;;5004587;28;20069;-70
2023/07/14 08:18:18;;;;;;;1.73;1.63;;;;;;;;;;5005535;28;20056;-70
2023/07/14 08:20:43;;;;;;;1.67;1.42;;;;;;;;;;5005696;28;20050;-69
2023/07/14 08:23:14;;;;;;;3.70;1.65;;;;;;;;;;5012713;28;20045;-71
2023/07/14 08:25:40;;;;;;;2.88;1.42;;;;;;;;;;5009509;28;20061;-70
2023/07/14 08:28:06;;;;;;;2.53;1.63;;;;;;;;;;5008430;28;20080;-71
2023/07/14 08:30:31;;;;;;;5.47;1.50;;;;;;;;;;5008705;28;20084;-71
2023/07/14 08:32:57;;;;;;;2.05;1.40;;;;;;;;;;5003027;28;20053;-69
2023/07/14 08:35:23;;;;;;;1.70;1.60;;;;;;;;;;5009058;28;20065;-70
2023/07/14 08:37:49;;;;;;;2.65;1.33;;;;;;;;;;5004617;28;20077;-71
2023/07/14 08:40:21;;;;;;;5.03;1.90;;;;;;;;;;5003006;28;20049;-70
2023/07/14 08:43:10;;;;;;;1.33;1.17;;;;;;;;;;5003047;28;20511;-70
2023/07/14 08:45:53;;;;;;;4.03;1.55;;;;;;;;;;5017407;28;20584;-70
2023/07/14 08:48:40;;;;;;;1.33;1.23;;;;;;;;;;5031616;28;20053;-69
2023/07/14 08:51:23;;;;;;;2.17;1.42;;;;;;;;;;5003339;28;20104;-70
2023/07/14 08:53:52;;;;;;;2.63;1.77;;;;;;;;;;5001861;28;20045;-71
2023/07/14 08:56:19;;;;;;;1.88;1.40;;;;;;;;;;5002223;28;20149;-69
2023/07/14 08:58:47;;;;;;;4.10;1.42;;;;;;;;;;5000757;28;20388;-70
2023/07/14 09:01:34;;;;;;;8.73;1.45;;;;;;;;;;5001773;28;20038;-69
2023/07/14 09:04:04;;;;;;;2.45;1.70;;;;;;;;;;5002094;28;20053;-70
2023/07/14 09:06:33;;;;;;;1.60;1.50;;;;;;;;;;5002187;28;20714;-69
2023/07/14 09:08:59;;;;;;;1.48;1.38;;;;;;;;;;5005600;28;20048;-69
2023/07/14 09:12:11;;;;;;;2.10;1.30;;;;;;;;;;5001697;28;20078;-69
2023/07/14 09:15:02;;;;;;;1.25;1.05;;;;;;;;;;4947531;28;20428;-70
2023/07/14 09:17:55;;;;;;;1.60;1.50;;;;;;;;;;5001942;28;20057;-68
2023/07/14 09:20:58;;;;;;;2.10;1.63;;;;;;;;;;5013920;28;20449;-71
2023/07/14 09:23:45;;;;;;;3.35;1.42;;;;;;;;;;5006064;28;20052;-72
2023/07/14 09:26:13;;;;;;;1.60;1.50;;;;;;;;;;5002011;28;20169;-71
2023/07/14 09:28:43;;;;;;;5.03;1.80;;;;;;;;;;5001212;28;20049;-73
2023/07/14 09:31:31;;;;;;;2.40;1.70;;;;;;;;;;5000436;28;20512;-72
2023/07/14 09:34:00;;;;;;;3.78;1.85;;;;;;;;;;5001433;28;20057;-72
2023/07/14 09:36:28;;;;;;;2.83;1.40;;;;;;;;;;5002020;28;21231;-72
2023/07/14 09:39:03;;;;;;;2.00;1.30;;;;;;;;;;5001652;28;20069;-73
2023/07/14 09:41:28;;;;;;;1.70;1.33;;;;;;;;;;5001253;28;20049;-72
2023/07/14 09:44:00;;;;;;;1.40;1.20;;;;;;;;;;5007588;28;20403;-73
2023/07/14 09:46:40;;;;;;;2.13;1.23;;;;;;;;;;5005960;28;20046;-72
2023/07/14 09:49:16;;;;;;;5.13;1.20;;;;;;;;;;5002087;28;20045;-72
2023/07/14 09:52:01;;;;;;;7.00;1.00;;;;;;;;;;5000748;28;20077;-72
2023/07/14 09:54:26;;;;;;;1.63;1.05;;;;;;;;;;5012778;28;20045;-71
2023/07/14 09:57:01;;;;;;;1.98;1.20;;;;;;;;;;5001641;28;20116;-72
2023/07/14 09:59:27;;;;;;;1.00;1.00;;;;;;;;;;5001187;28;20047;-72
2023/07/14 10:02:02;;;;;;;1.75;1.20;;;;;;;;;;5000522;28;20049;-73
2023/07/14 10:04:30;;;;;;;2.00;1.25;;;;;;;;;;5000825;28;20054;-72
2023/07/14 10:07:22;;;;;;;1.45;1.00;;;;;;;;;;5008962;28;20042;-73
2023/07/14 10:09:58;;;;;;;3.25;1.10;;;;;;;;;;5001578;28;20592;-74
2023/07/14 10:12:25;;;;;;;1.48;1.20;;;;;;;;;;5001460;28;20140;-75
2023/07/14 10:14:50;;;;;;;1.98;1.08;;;;;;;;;;5000470;28;20165;-73
2023/07/14 10:17:26;;;;;;;1.85;1.20;;;;;;;;;;5000779;28;20125;-73
2023/07/14 10:19:56;;;;;;;1.30;1.10;;;;;;;;;;5002746;28;20048;-73
2023/07/14 10:22:31;;;;;;;0.80;0.80;;;;;;;;;;5000713;28;20049;-73
2023/07/14 10:24:59;;;;;;;1.20;1.10;;;;;;;;;;5004990;28;20080;-71
2023/07/14 10:27:27;;;;;;;2.35;1.00;;;;;;;;;;5007375;28;20487;-72
2023/07/14 10:30:05;;;;;;;0.88;0.88;;;;;;;;;;4998367;28;20060;-73
2023/07/14 10:32:52;;;;;;;1.20;1.10;;;;;;;;;;4999767;28;21235;-74
2023/07/14 10:35:21;;;;;;;0.98;0.90;;;;;;;;;;5000010;28;20046;-73
2023/07/14 10:37:56;;;;;;;0.85;0.80;;;;;;;;;;5001019;28;20097;-73
2023/07/14 10:40:27;;;;;;;1.20;1.10;;;;;;;;;;5013311;28;20137;-74
2023/07/14 10:43:03;;;;;;;1.00;0.90;;;;;;;;;;4999172;28;20132;-71
2023/07/14 10:45:32;;;;;;;1.40;1.00;;;;;;;;;;5000495;28;20049;-71
2023/07/14 10:48:11;;;;;;;1.52;1.05;;;;;;;;;;4996974;28;20053;-72
2023/07/14 10:50:40;;;;;;;1.10;1.00;;;;;;;;;;4998689;28;20080;-71
2023/07/14 10:53:22;;;;;;;1.58;0.90;;;;;;;;;;4996765;28;20657;-71
2023/07/14 10:55:50;;;;;;;2.50;0.85;;;;;;;;;;4998325;28;20060;-73
2023/07/14 10:58:30;;;;;;;2.08;1.02;;;;;;;;;;4996929;28;20104;-72
2023/07/14 11:01:03;;;;;;;1.30;1.07;;;;;;;;;;4999135;28;20537;-72
2023/07/14 11:03:40;;;;;;;1.10;1.00;;;;;;;;;;4998488;28;20062;-73
2023/07/14 11:06:23;;;;;;;0.75;0.73;;;;;;;;;;4998393;28;20061;-72
2023/07/14 11:08:54;;;;;;;3.33;1.10;;;;;;;;;;5001885;28;20073;-72
2023/07/14 11:11:29;;;;;;;;;;;;;;;;;;5000996;28;20091;-71
2023/07/14 11:14:12;;;;;;;0.93;0.90;;;;;;;;;;5002020;28;19917;-71
2023/07/14 11:17:01;;;;;;;0.80;0.80;;;;;;;;;;5004937;28;20037;-72
2023/07/14 11:19:48;;;;;;;0.80;0.80;;;;;;;;;;5002056;28;20072;-71
2023/07/14 11:22:52;;;;;;;1.50;0.63;;;;;;;;;;5003786;28;20049;-72
2023/07/14 11:25:21;;;;;;;1.02;0.95;;;;;;;;;;5007111;28;20041;-72
2023/07/14 11:28:35;;;;;;;0.70;0.70;;;;;;;;;;5007480;28;20041;-72
2023/07/14 11:31:16;;;;;;;1.17;1.00;;;;;;;;;;4998780;28;20107;-73
2023/07/14 11:34:03;;;;;;;0.70;0.70;;;;;;;;;;4999767;28;20528;-73
2023/07/14 11:36:36;;;;;;;1.42;1.02;;;;;;;;;;5002009;28;20049;-72
2023/07/14 11:39:32;;;;;;;2.60;1.23;;;;;;;;;;5011954;28;20043;-73
2023/07/14 11:41:59;;;;;;;2.35;0.90;;;;;;;;;;4999991;28;20050;-73
2023/07/14 11:44:25;;;;;;;2.00;0.90;;;;;;;;;;5002143;28;20131;-72
2023/07/14 11:46:51;;;;;;;2.85;0.80;;;;;;;;;;5000497;28;20062;-74
2023/07/14 11:49:33;;;;;;;3.03;0.85;;;;;;;;;;5002230;28;20510;-73
2023/07/14 11:52:10;;;;;;;1.27;0.80;;;;;;;;;;5001132;28;20053;-74
2023/07/14 11:54:53;;;;;;;1.10;0.93;;;;;;;;;;5002301;28;20037;-73
2023/07/14 11:57:20;;;;;;;1.90;1.00;;;;;;;;;;5004985;28;20053;-74
2023/07/14 11:59:55;;;;;;;0.93;0.90;;;;;;;;;;5001199;28;20049;-74
2023/07/14 12:02:42;;;;;;;0.75;0.70;;;;;;;;;;5003176;28;20118;-72
2023/07/14 12:05:14;;;;;;;1.05;0.90;;;;;;;;;;5003872;28;20049;-72
2023/07/14 12:08:04;;;;;;;0.88;0.85;;;;;;;;;;5004389;28;20586;-72
2023/07/14 12:10:39;;;;;;;0.80;0.80;;;;;;;;;;4979765;28;20054;-73
2023/07/14 12:13:22;;;;;;;3.42;1.00;;;;;;;;;;4997858;28;20300;-72
2023/07/14 12:16:03;;;;;;;0.93;0.90;;;;;;;;;;4999389;28;20049;-74
2023/07/14 12:18:28;;;;;;;0.97;0.93;;;;;;;;;;4995842;28;20088;-73
2023/07/14 12:21:15;;;;;;;1.05;0.95;;;;;;;;;;4998319;28;20156;-73
2023/07/14 12:23:48;;;;;;;1.00;0.70;;;;;;;;;;4997376;28;20706;-73
2023/07/14 12:26:38;;;;;;;1.17;0.80;;;;;;;;;;4996726;28;20046;-72
2023/07/14 12:29:14;;;;;;;1.27;1.17;;;;;;;;;;5003741;28;20046;-72
2023/07/14 12:31:40;;;;;;;0.70;0.70;;;;;;;;;;5004803;28;20635;-74
2023/07/14 12:34:31;;;;;;;0.88;0.85;;;;;;;;;;5006823;28;20063;-71
2023/07/14 12:36:59;;;;;;;1.10;1.00;;;;;;;;;;5004575;28;20088;-71
2023/07/14 12:39:25;;;;;;;2.03;1.00;;;;;;;;;;5013575;28;20053;-69
2023/07/14 12:41:53;;;;;;;1.08;0.85;;;;;;;;;;5009544;28;20041;-72
2023/07/14 12:44:26;;;;;;;0.90;0.90;;;;;;;;;;5009757;28;20109;-70
2023/07/14 12:46:54;;;;;;;2.25;1.00;;;;;;;;;;5010179;28;20100;-70
2023/07/14 12:49:33;;;;;;;1.13;1.00;;;;;;;;;;5001289;28;20442;-69
2023/07/14 12:52:05;;;;;;;0.95;0.73;;;;;;;;;;5006378;28;20089;-71
2023/07/14 12:54:30;;;;;;;0.80;0.80;;;;;;;;;;5006985;28;20049;-71
2023/07/14 12:56:59;;;;;;;2.15;0.82;;;;;;;;;;5008111;28;20041;-69
2023/07/14 12:59:29;;;;;;;0.90;0.90;;;;;;;;;;5008644;28;20422;-72
2023/07/14 13:01:54;;;;;;;1.25;0.90;;;;;;;;;;5006311;28;20050;-72
2023/07/14 13:04:21;;;;;;;1.17;0.90;;;;;;;;;;5007336;28;20056;-71
2023/07/14 13:07:03;;;;;;;1.20;1.00;;;;;;;;;;5008648;28;20053;-70
2023/07/14 13:09:29;;;;;;;2.55;1.27;;;;;;;;;;5001313;28;20053;-71
2023/07/14 13:11:55;;;;;;;1.05;0.95;;;;;;;;;;5019323;28;20056;-71
2023/07/14 13:14:34;;;;;;;0.93;0.90;;;;;;;;;;5001542;28;20049;-72
2023/07/14 13:16:59;;;;;;;2.28;0.90;;;;;;;;;;5007762;28;20051;-71
2023/07/14 13:19:38;;;;;;;1.35;1.05;;;;;;;;;;5007691;28;20053;-70
2023/07/14 13:22:03;;;;;;;1.00;0.82;;;;;;;;;;5007744;28;20042;-70
2023/07/14 13:24:32;;;;;;;4.20;1.13;;;;;;;;;;5001997;28;20045;-71
2023/07/14 13:26:59;;;;;;;0.90;0.80;;;;;;;;;;5009999;28;20060;-70
2023/07/14 13:29:27;;;;;;;0.80;0.80;;;;;;;;;;5008747;28;20503;-70
2023/07/14 13:31:56;;;;;;;3.40;0.90;;;;;;;;;;5004264;28;20045;-71
2023/07/14 13:34:24;;;;;;;3.10;0.90;;;;;;;;;;5009980;28;20061;-71
2023/07/14 13:36:52;;;;;;;0.80;0.80;;;;;;;;;;5001891;28;20053;-70
2023/07/14 13:39:24;;;;;;;0.70;0.70;;;;;;;;;;5001215;28;20141;-70
2023/07/14 13:41:49;;;;;;;1.00;0.80;;;;;;;;;;5001222;28;20844;-71
2023/07/14 13:44:49;;;;;;;3.38;1.00;;;;;;;;;;5005575;28;20049;-70
2023/07/14 13:47:15;;;;;;;1.48;0.93;;;;;;;;;;5001958;28;20034;-72
2023/07/14 13:49:41;;;;;;;0.82;0.82;;;;;;;;;;4999956;28;20099;-71
2023/07/14 13:52:15;;;;;;;1.00;0.98;;;;;;;;;;5008549;28;20053;-72
2023/07/14 13:54:44;;;;;;;1.58;1.10;;;;;;;;;;5011768;28;20057;-73
2023/07/14 13:57:11;;;;;;;3.58;0.90;;;;;;;;;;5002107;28;20077;-74
2023/07/14 13:59:36;;;;;;;1.48;1.05;;;;;;;;;;5001674;28;20081;-73
2023/07/14 14:02:20;;;;;;;1.20;0.88;;;;;;;;;;4999183;28;20137;-72
2023/07/14 14:04:45;;;;;;;1.13;0.90;;;;;;;;;;5004759;28;20080;-72
2023/07/14 14:07:11;;;;;;;4.18;1.45;;;;;;;;;;5000185;28;21172;-70
2023/07/14 14:09:36;;;;;;;4.60;1.10;;;;;;;;;;5006323;28;20057;-70
2023/07/14 14:12:02;;;;;;;0.93;0.88;;;;;;;;;;5000600;28;20037;-69
2023/07/14 14:14:28;;;;;;;1.00;0.90;;;;;;;;;;4999940;28;20046;-71
2023/07/14 14:16:53;;;;;;;1.08;1.00;;;;;;;;;;5003517;28;20418;-71
2023/07/14 14:19:23;;;;;;;1.73;1.08;;;;;;;;;;5000658;28;20054;-71
2023/07/14 14:21:55;;;;;;;2.25;1.00;;;;;;;;;;5000049;28;20042;-71
2023/07/14 14:24:21;;;;;;;2.00;0.90;;;;;;;;;;5001007;28;20079;-71
2023/07/14 14:26:47;;;;;;;1.10;0.98;;;;;;;;;;5004997;28;20092;-71
2023/07/14 14:29:13;;;;;;;1.00;0.90;;;;;;;;;;5006962;28;20045;-71
2023/07/14 14:31:39;;;;;;;1.88;1.00;;;;;;;;;;5000688;28;20061;-69
2023/07/14 14:34:13;;;;;;;1.10;1.00;;;;;;;;;;5000489;28;20140;-72
2023/07/14 14:36:39;;;;;;;1.35;1.00;;;;;;;;;;5000823;28;20056;-71
2023/07/14 14:39:20;;;;;;;1.27;1.15;;;;;;;;;;4999750;28;20046;-70
2023/07/14 14:41:47;;;;;;;0.88;0.88;;;;;;;;;;5002770;28;20095;-71
2023/07/14 14:44:21;;;;;;;1.17;0.90;;;;;;;;;;5000659;28;20046;-71
2023/07/14 14:46:47;;;;;;;1.42;1.10;;;;;;;;;;5000990;28;20091;-70
2023/07/14 14:49:15;;;;;;;2.88;1.00;;;;;;;;;;4999528;28;20041;-70
2023/07/14 14:51:41;;;;;;;1.10;1.00;;;;;;;;;;5000371;28;20088;-72
2023/07/14 14:54:07;;;;;;;1.08;1.00;;;;;;;;;;5002917;28;20069;-72
2023/07/14 14:56:40;;;;;;;1.02;0.90;;;;;;;;;;5005360;28;20046;-72
2023/07/14 14:59:23;;;;;;;2.40;2.20;;;;;;;;;;4999315;28;20050;-72
2023/07/14 15:01:49;;;;;;;1.20;1.10;;;;;;;;;;4997968;28;20543;-71
2023/07/14 15:04:17;;;;;;;1.00;0.95;;;;;;;;;;4999826;28;20053;-72